Time;durP1;ratioP1;P1;durP2;ratioP2;P2;SDS_P1;SDS_P2;PMS_P1;PMS_P2;Temp;Humidity;BMP_temperature;BMP_pressure;BME280_temperature;BME280_humidity;BME280_pressure;Samples;Min_cycle;Max_cycle;Signal;HPM_P1;HPM_P2
2022/07/14 00:01:39;;;;;;;6.60;6.30;;;;;;;-143.83;100.00;62900.06;5105203;28;20068;-62
2022/07/14 00:04:05;;;;;;;6.60;6.30;;;;;;;-143.83;100.00;62900.06;5123858;28;20036;-62
2022/07/14 00:06:31;;;;;;;6.53;6.22;;;;;;;-143.83;100.00;62900.06;5102313;28;20513;-62
2022/07/14 00:08:58;;;;;;;6.65;6.35;;;;;;;-143.83;100.00;62900.06;5110832;28;20023;-63
2022/07/14 00:11:24;;;;;;;6.80;6.50;;;;;;;-143.83;100.00;62900.06;5109614;28;20479;-62
2022/07/14 00:13:50;;;;;;;6.80;6.50;;;;;;;-143.83;100.00;62900.06;5111518;28;20044;-62
2022/07/14 00:16:16;;;;;;;6.75;6.45;;;;;;;-143.83;100.00;62900.06;5113197;28;20023;-62
2022/07/14 00:18:44;;;;;;;6.60;6.30;;;;;;;-143.83;100.00;62900.06;5115207;28;20023;-61
2022/07/14 00:21:11;;;;;;;6.50;6.20;;;;;;;-143.83;100.00;62900.06;5104055;28;20020;-62
2022/07/14 00:23:37;;;;;;;6.70;6.40;;;;;;;-143.83;100.00;62900.06;5105922;27;20035;-62
2022/07/14 00:26:03;;;;;;;6.70;6.40;;;;;;;-143.83;100.00;62900.06;5115125;28;20019;-61
2022/07/14 00:28:29;;;;;;;6.40;6.10;;;;;;;-143.83;100.00;62900.06;5114635;28;20027;-61
2022/07/14 00:30:54;;;;;;;6.63;6.32;;;;;;;-143.83;100.00;62900.06;5115041;28;20018;-63
2022/07/14 00:33:20;;;;;;;6.55;6.25;;;;;;;-143.83;100.00;62900.06;5115210;28;20432;-63
2022/07/14 00:35:46;;;;;;;6.53;6.22;;;;;;;-143.83;100.00;62900.06;5115098;28;20084;-61
2022/07/14 00:38:11;;;;;;;6.80;6.50;;;;;;;-143.83;100.00;62900.06;5113368;28;20092;-62
2022/07/14 00:40:37;;;;;;;6.80;6.50;;;;;;;-143.83;100.00;62900.06;5111949;27;20039;-63
2022/07/14 00:43:04;;;;;;;6.47;6.18;;;;;;;-143.83;100.00;62900.06;5103321;28;20028;-62
2022/07/14 00:45:29;;;;;;;6.68;6.38;;;;;;;-143.83;100.00;62900.06;5113550;28;20027;-61
2022/07/14 00:47:55;;;;;;;6.60;6.30;;;;;;;-143.83;100.00;62900.06;5114498;28;20024;-62
2022/07/14 00:50:20;;;;;;;6.57;6.28;;;;;;;-143.83;100.00;62900.06;5113815;28;20076;-63
2022/07/14 00:52:48;;;;;;;6.68;6.38;;;;;;;-143.83;100.00;62900.06;5108098;28;20062;-62
2022/07/14 00:55:14;;;;;;;6.50;6.20;;;;;;;-143.83;100.00;62900.06;5109786;28;20031;-63
2022/07/14 00:57:40;;;;;;;6.70;6.40;;;;;;;-143.83;100.00;62900.06;5126804;27;20031;-62
2022/07/14 01:00:08;;;;;;;6.50;6.20;;;;;;;-143.83;100.00;62900.06;5119750;27;20738;-62
2022/07/14 01:02:34;;;;;;;6.60;6.30;;;;;;;-143.83;100.00;62900.06;5111379;28;20095;-62
2022/07/14 01:05:00;;;;;;;6.50;6.20;;;;;;;-143.83;100.00;62900.06;5113181;28;20509;-62
2022/07/14 01:07:25;;;;;;;6.50;6.20;;;;;;;-143.83;100.00;62900.06;5107645;28;20043;-62
2022/07/14 01:09:51;;;;;;;6.80;6.50;;;;;;;-143.83;100.00;62900.06;5114425;28;20023;-62
2022/07/14 01:12:17;;;;;;;6.57;6.28;;;;;;;-143.83;100.00;62900.06;5113683;28;20024;-62
2022/07/14 01:14:43;;;;;;;6.80;6.50;;;;;;;-143.83;100.00;62900.06;5099862;27;20110;-62
2022/07/14 01:17:09;;;;;;;6.68;6.38;;;;;;;-143.83;100.00;62900.06;5113882;28;20542;-62
2022/07/14 01:19:35;;;;;;;6.72;6.43;;;;;;;-143.83;100.00;62900.06;5123475;27;20031;-62
2022/07/14 01:22:02;;;;;;;6.53;6.22;;;;;;;-143.83;100.00;62900.06;5104028;27;20030;-62
2022/07/14 01:24:28;;;;;;;6.65;6.35;;;;;;;-143.83;100.00;62900.06;5114130;28;20031;-62
2022/07/14 01:26:54;;;;;;;6.60;6.30;;;;;;;-143.83;100.00;62900.06;5113265;28;20023;-62
2022/07/14 01:29:20;;;;;;;6.47;6.18;;;;;;;-143.83;100.00;62900.06;5113779;28;20479;-62
2022/07/14 01:31:46;;;;;;;6.60;6.30;;;;;;;-143.83;100.00;62900.06;5116686;27;20479;-62
2022/07/14 01:34:12;;;;;;;6.70;6.40;;;;;;;-143.83;100.00;62900.06;5112169;28;20160;-62
2022/07/14 01:36:38;;;;;;;6.78;6.47;;;;;;;-143.83;100.00;62900.06;5101850;28;20034;-62
2022/07/14 01:39:05;;;;;;;6.78;6.47;;;;;;;-143.83;100.00;62900.06;5113279;28;20089;-62
2022/07/14 01:41:31;;;;;;;6.68;6.38;;;;;;;-143.83;100.00;62900.06;5111023;28;20559;-62
2022/07/14 01:43:57;;;;;;;6.55;6.25;;;;;;;-143.83;100.00;62900.06;5113698;28;20463;-62
2022/07/14 01:46:23;;;;;;;6.82;6.53;;;;;;;-143.83;100.00;62900.06;5094080;28;20360;-61
2022/07/14 01:48:49;;;;;;;6.60;6.30;;;;;;;-143.83;100.00;62900.06;5107832;27;20110;-62
2022/07/14 01:51:14;;;;;;;6.82;6.53;;;;;;;-143.83;100.00;62900.06;5121898;27;20428;-61
2022/07/14 01:53:43;;;;;;;6.85;6.55;;;;;;;-143.83;100.00;62900.06;5108717;28;20030;-63
2022/07/14 01:56:10;;;;;;;6.65;6.35;;;;;;;-143.83;100.00;62900.06;5111533;27;20045;-61
2022/07/14 01:58:36;;;;;;;6.72;6.43;;;;;;;-143.83;100.00;62900.06;5113028;28;20647;-62
2022/07/14 02:03:45;;;;;;;6.80;6.50;;;;;;;-143.83;100.00;62900.06;5112085;28;20033;-62
2022/07/14 02:06:12;;;;;;;6.65;6.35;;;;;;;-143.83;100.00;62900.06;5103830;28;20106;-62
2022/07/14 02:08:37;;;;;;;6.70;6.40;;;;;;;-143.83;100.00;62900.06;5112991;28;20030;-62
2022/07/14 02:13:47;;;;;;;6.57;6.28;;;;;;;-143.83;100.00;62900.06;5107891;28;20042;-62
2022/07/14 02:16:12;;;;;;;6.50;6.20;;;;;;;-143.83;100.00;62900.06;5105301;28;20032;-62
2022/07/14 02:18:38;;;;;;;6.55;6.25;;;;;;;-143.83;100.00;62900.06;5108235;28;20032;-61
2022/07/14 02:21:03;;;;;;;6.60;6.30;;;;;;;-143.83;100.00;62900.06;5092814;28;20036;-62
2022/07/14 02:23:29;;;;;;;6.60;6.30;;;;;;;-143.83;100.00;62900.06;5113366;27;20103;-62
2022/07/14 02:25:54;;;;;;;6.70;6.40;;;;;;;-143.83;100.00;62900.06;5113011;28;20090;-62
2022/07/14 02:28:20;;;;;;;6.90;6.60;;;;;;;-143.83;100.00;62900.06;5111149;28;20022;-62
2022/07/14 02:30:46;;;;;;;6.50;6.20;;;;;;;-143.83;100.00;62900.06;5101118;28;20432;-62
2022/07/14 02:33:11;;;;;;;6.80;6.50;;;;;;;-143.83;100.00;62900.06;5111218;28;20446;-62
2022/07/14 02:35:37;;;;;;;6.45;6.15;;;;;;;-143.83;100.00;62900.06;5112816;28;20072;-62
2022/07/14 02:38:03;;;;;;;6.70;6.40;;;;;;;-143.83;100.00;62900.06;5111050;28;20467;-62
2022/07/14 02:40:29;;;;;;;6.50;6.20;;;;;;;-143.83;100.00;62900.06;5112318;27;20442;-62
2022/07/14 02:42:54;;;;;;;6.53;6.22;;;;;;;-143.83;100.00;62900.06;5112602;28;20028;-62
2022/07/14 02:45:20;;;;;;;6.63;6.32;;;;;;;-143.83;100.00;62900.06;5098264;28;20106;-62
2022/07/14 02:47:45;;;;;;;6.68;6.38;;;;;;;-143.83;100.00;62900.06;5124794;27;20053;-62
2022/07/14 02:50:11;;;;;;;6.70;6.40;;;;;;;-143.83;100.00;62900.06;5112378;28;20031;-62
2022/07/14 02:52:37;;;;;;;6.70;6.40;;;;;;;-143.83;100.00;62900.06;5125833;27;20023;-62
2022/07/14 02:55:03;;;;;;;6.72;6.43;;;;;;;-143.83;100.00;62900.06;5112196;28;20023;-61
2022/07/14 02:57:29;;;;;;;6.60;6.30;;;;;;;-143.83;100.00;62900.06;5112674;28;20100;-62
2022/07/14 02:59:55;;;;;;;6.70;6.40;;;;;;;-143.83;100.00;62900.06;5108595;28;20055;-62
2022/07/14 03:02:21;;;;;;;6.80;6.50;;;;;;;-143.83;100.00;62900.06;5111917;28;20050;-62
2022/07/14 03:04:46;;;;;;;6.63;6.32;;;;;;;-143.83;100.00;62900.06;5112294;28;20035;-62
2022/07/14 03:07:12;;;;;;;6.60;6.30;;;;;;;-143.83;100.00;62900.06;5112424;28;20084;-60
2022/07/14 03:09:37;;;;;;;7.10;6.80;;;;;;;-143.83;100.00;62900.06;5111183;28;20502;-61
2022/07/14 03:12:03;;;;;;;6.90;6.60;;;;;;;-143.83;100.00;62900.06;5111567;28;20515;-62
2022/07/14 03:14:28;;;;;;;6.90;6.60;;;;;;;-143.83;100.00;62900.06;5111913;28;20031;-62
2022/07/14 03:16:54;;;;;;;7.10;6.80;;;;;;;-143.83;100.00;62900.06;5110302;28;20051;-62
2022/07/14 03:19:19;;;;;;;6.90;6.60;;;;;;;-143.83;100.00;62900.06;5109163;28;20049;-62
2022/07/14 03:21:45;;;;;;;6.85;6.55;;;;;;;-143.83;100.00;62900.06;5112040;28;20012;-62
2022/07/14 03:24:10;;;;;;;6.90;6.60;;;;;;;-143.83;100.00;62900.06;5102515;28;20034;-61
2022/07/14 03:26:36;;;;;;;6.75;6.45;;;;;;;-143.83;100.00;62900.06;5111847;28;20450;-62
2022/07/14 03:29:02;;;;;;;7.00;6.70;;;;;;;-143.83;100.00;62900.06;5107567;28;20032;-62
2022/07/14 03:31:28;;;;;;;7.07;6.78;;;;;;;-143.83;100.00;62900.06;5103987;28;20031;-61
2022/07/14 03:33:53;;;;;;;7.10;6.80;;;;;;;-143.83;100.00;62900.06;5109763;28;20543;-62
2022/07/14 03:36:20;;;;;;;7.20;6.90;;;;;;;-143.83;100.00;62900.06;5098930;28;20020;-61
2022/07/14 03:38:46;;;;;;;7.50;7.20;;;;;;;-143.83;100.00;62900.06;5111225;28;20047;-62
2022/07/14 03:41:12;;;;;;;7.10;6.80;;;;;;;-143.83;100.00;62900.06;5095325;28;20531;-63
2022/07/14 03:43:38;;;;;;;7.13;6.82;;;;;;;-143.83;100.00;62900.06;5109631;28;20050;-61
2022/07/14 03:46:04;;;;;;;7.20;6.90;;;;;;;-143.83;100.00;62900.06;5099768;28;20020;-61
2022/07/14 03:48:30;;;;;;;7.20;6.90;;;;;;;-143.83;100.00;62900.06;5119572;27;20331;-61
2022/07/14 03:50:56;;;;;;;7.20;6.90;;;;;;;-143.83;100.00;62900.06;5113338;28;20016;-62
2022/07/14 03:53:21;;;;;;;7.28;6.97;;;;;;;-143.83;100.00;62900.06;5102608;28;20028;-62
2022/07/14 03:55:47;;;;;;;7.10;6.80;;;;;;;-143.83;100.00;62900.06;5113640;28;20027;-62
2022/07/14 03:58:12;;;;;;;7.30;7.00;;;;;;;-143.83;100.00;62900.06;5111212;28;20364;-62
2022/07/14 04:00:38;;;;;;;7.60;7.30;;;;;;;-143.83;100.00;62900.06;5110991;28;20028;-62
2022/07/14 04:03:03;;;;;;;7.20;6.90;;;;;;;-143.83;100.00;62900.06;5114034;28;20072;-62
2022/07/14 04:05:29;;;;;;;7.18;6.88;;;;;;;-143.83;100.00;62900.06;5109021;27;20434;-62
2022/07/14 04:07:54;;;;;;;7.50;7.20;;;;;;;-143.83;100.00;62900.06;5105430;28;20089;-63
2022/07/14 04:10:20;;;;;;;7.40;7.10;;;;;;;-143.83;100.00;62900.06;5109168;28;20028;-63
2022/07/14 04:12:46;;;;;;;7.38;7.07;;;;;;;-143.83;100.00;62900.06;5105988;28;20030;-62
2022/07/14 04:15:12;;;;;;;7.25;6.95;;;;;;;-143.83;100.00;62900.06;5115142;28;20076;-62
2022/07/14 04:17:38;;;;;;;7.20;6.90;;;;;;;-143.83;100.00;62900.06;5115078;28;20057;-61
2022/07/14 04:20:04;;;;;;;7.07;6.78;;;;;;;-143.83;100.00;62900.06;5113571;28;20027;-63
2022/07/14 04:22:30;;;;;;;7.30;7.00;;;;;;;-143.83;100.00;62900.06;5103854;27;20111;-62
2022/07/14 04:24:56;;;;;;;7.40;7.10;;;;;;;-143.83;100.00;62900.06;5104221;28;20124;-62
2022/07/14 04:27:22;;;;;;;7.30;7.00;;;;;;;-143.83;100.00;62900.06;5114740;28;20096;-63
2022/07/14 04:29:47;;;;;;;7.50;7.20;;;;;;;-143.83;100.00;62900.06;5113849;28;20031;-62
2022/07/14 04:32:13;;;;;;;7.25;6.95;;;;;;;-143.83;100.00;62900.06;5114835;28;20076;-63
2022/07/14 04:34:39;;;;;;;7.30;7.00;;;;;;;-143.83;100.00;62900.06;5114802;28;20486;-62
2022/07/14 04:37:05;;;;;;;7.22;6.93;;;;;;;-143.83;100.00;62900.06;5114275;27;20031;-62
2022/07/14 04:39:31;;;;;;;7.47;7.18;;;;;;;-143.83;100.00;62900.06;5114956;27;20048;-62
2022/07/14 04:41:56;;;;;;;7.00;6.70;;;;;;;-143.83;100.00;62900.06;5112199;28;20117;-63
2022/07/14 04:44:22;;;;;;;7.03;6.72;;;;;;;-143.83;100.00;62900.06;5113809;28;20110;-63
2022/07/14 04:46:49;;;;;;;6.97;6.68;;;;;;;-143.83;100.00;62900.06;5113979;28;20031;-62
2022/07/14 04:52:02;;;;;;;7.00;6.70;;;;;;;-143.83;100.00;62900.06;5114333;28;20050;-63
2022/07/14 04:54:29;;;;;;;7.05;6.75;;;;;;;-143.83;100.00;62900.06;5109796;28;20028;-62
2022/07/14 04:56:54;;;;;;;7.20;6.90;;;;;;;-143.83;100.00;62900.06;5109061;27;20028;-64
2022/07/14 04:59:20;;;;;;;7.22;6.93;;;;;;;-143.83;100.00;62900.06;5113008;27;20032;-62
2022/07/14 05:01:45;;;;;;;7.03;6.72;;;;;;;-143.83;100.00;62900.06;5107805;27;20055;-64
2022/07/14 05:04:11;;;;;;;7.30;7.00;;;;;;;-143.83;100.00;62900.06;5108864;28;20027;-63
2022/07/14 05:06:37;;;;;;;7.40;7.10;;;;;;;-143.83;100.00;62900.06;5111320;27;20106;-63
2022/07/14 05:09:03;;;;;;;7.50;7.20;;;;;;;-143.83;100.00;62900.06;5109444;27;20487;-62
2022/07/14 05:11:29;;;;;;;7.50;7.20;;;;;;;-143.83;100.00;62900.06;5113818;27;20031;-62
2022/07/14 05:13:54;;;;;;;7.35;7.05;;;;;;;-143.83;100.00;62900.06;5107890;28;20114;-63
2022/07/14 05:16:20;;;;;;;7.45;7.15;;;;;;;-143.83;100.00;62900.06;5107111;27;20030;-62
2022/07/14 05:18:46;;;;;;;7.50;7.20;;;;;;;-143.83;100.00;62900.06;5119103;27;20344;-64
2022/07/14 05:21:12;;;;;;;7.45;7.15;;;;;;;-143.83;100.00;62900.06;5109114;27;20027;-63
2022/07/14 05:23:37;;;;;;;7.30;7.00;;;;;;;-143.83;100.00;62900.06;5104862;28;20020;-63
2022/07/14 05:26:10;;;;;;;7.40;7.10;;;;;;;-143.83;100.00;62900.06;5111529;27;20019;-63
2022/07/14 05:28:35;;;;;;;7.30;7.00;;;;;;;-143.83;100.00;62900.06;5115766;27;20036;-63
2022/07/14 05:31:01;;;;;;;7.50;7.20;;;;;;;-143.83;100.00;62900.06;5109252;27;20445;-63
2022/07/14 05:33:26;;;;;;;7.43;7.13;;;;;;;-143.83;100.00;62900.06;5098595;27;20031;-62
2022/07/14 05:35:52;;;;;;;7.22;6.93;;;;;;;-143.83;100.00;62900.06;5114583;27;20491;-64
2022/07/14 05:38:17;;;;;;;7.43;7.13;;;;;;;-143.83;100.00;62900.06;5111217;27;20148;-62
2022/07/14 05:40:43;;;;;;;7.38;7.07;;;;;;;-143.83;100.00;62900.06;5125803;27;20098;-63
2022/07/14 05:43:08;;;;;;;7.47;7.18;;;;;;;-143.83;100.00;62900.06;5105014;27;20038;-62
2022/07/14 05:45:34;;;;;;;7.50;7.20;;;;;;;-143.83;100.00;62900.06;5113409;27;20474;-63
2022/07/14 05:47:59;;;;;;;7.55;7.25;;;;;;;-143.83;100.00;62900.06;5122464;27;20027;-63
2022/07/14 05:50:25;;;;;;;7.50;7.20;;;;;;;-143.83;100.00;62900.06;5111310;27;21974;-62
2022/07/14 05:52:50;;;;;;;7.68;7.38;;;;;;;-143.83;100.00;62900.06;5122751;27;20402;-62
2022/07/14 05:55:17;;;;;;;7.45;7.15;;;;;;;-143.83;100.00;62900.06;5119310;27;20019;-63
2022/07/14 05:57:43;;;;;;;7.15;6.85;;;;;;;-143.83;100.00;62900.06;5126959;27;20034;-62
2022/07/14 06:00:09;;;;;;;7.30;7.00;;;;;;;-143.83;100.00;62900.06;5111667;27;20042;-62
2022/07/14 06:02:35;;;;;;;7.07;6.78;;;;;;;-143.83;100.00;62900.06;5119530;27;20435;-63
2022/07/14 06:05:00;;;;;;;7.28;6.97;;;;;;;-143.83;100.00;62900.06;5111182;27;20126;-62
2022/07/14 06:07:25;;;;;;;7.60;7.30;;;;;;;-143.83;100.00;62900.06;5114124;27;20046;-62
2022/07/14 06:09:51;;;;;;;7.32;7.03;;;;;;;-143.83;100.00;62900.06;5123378;27;20532;-63
2022/07/14 06:12:16;;;;;;;7.30;7.00;;;;;;;-143.83;100.00;62900.06;5126044;27;20110;-63
2022/07/14 06:14:43;;;;;;;7.30;7.00;;;;;;;-143.83;100.00;62900.06;5115190;27;20036;-63
2022/07/14 06:17:09;;;;;;;7.25;6.95;;;;;;;-143.83;100.00;62900.06;5109844;27;20080;-64
2022/07/14 06:19:35;;;;;;;7.50;7.20;;;;;;;-143.83;100.00;62900.06;5106917;27;20035;-63
2022/07/14 06:22:05;;;;;;;7.40;7.10;;;;;;;-143.83;100.00;62900.06;5102925;28;20061;-64
2022/07/14 06:24:32;;;;;;;7.30;7.00;;;;;;;-143.83;100.00;62900.06;5112780;28;20027;-63
2022/07/14 06:26:57;;;;;;;7.70;7.40;;;;;;;-143.83;100.00;62900.06;5112428;28;20015;-63
2022/07/14 06:29:23;;;;;;;7.40;7.10;;;;;;;-143.83;100.00;62900.06;5112592;28;20026;-62
2022/07/14 06:31:51;;;;;;;7.25;6.95;;;;;;;-143.83;100.00;62900.06;5112475;28;20393;-63
2022/07/14 06:34:16;;;;;;;7.20;6.90;;;;;;;-143.83;100.00;62900.06;5103840;28;20024;-62
2022/07/14 06:36:42;;;;;;;7.18;6.88;;;;;;;-143.83;100.00;62900.06;5105716;28;20077;-63
2022/07/14 06:39:07;;;;;;;7.07;6.78;;;;;;;-143.83;100.00;62900.06;5105010;28;20075;-63
2022/07/14 06:41:33;;;;;;;7.22;6.93;;;;;;;-143.83;100.00;62900.06;5111742;28;20680;-63
2022/07/14 06:43:59;;;;;;;7.20;6.90;;;;;;;-143.83;100.00;62900.06;5112234;28;20047;-63
2022/07/14 06:46:27;;;;;;;7.05;6.75;;;;;;;-143.83;100.00;62900.06;5112214;28;20452;-63
2022/07/14 06:48:53;;;;;;;7.28;6.97;;;;;;;-143.83;100.00;62900.06;5112055;28;20024;-63
2022/07/14 06:51:19;;;;;;;7.22;6.93;;;;;;;-143.83;100.00;62900.06;5112359;28;20096;-63
2022/07/14 06:53:44;;;;;;;7.03;6.72;;;;;;;-143.83;100.00;62900.06;5111927;28;20453;-63
2022/07/14 06:56:09;;;;;;;7.00;6.70;;;;;;;-143.83;100.00;62900.06;5111196;28;20028;-62
2022/07/14 06:58:35;;;;;;;7.22;6.93;;;;;;;-143.83;100.00;62900.06;5111804;28;20023;-62
2022/07/14 07:01:01;;;;;;;7.10;6.80;;;;;;;-143.83;100.00;62900.06;5112190;28;20027;-62
2022/07/14 07:03:27;;;;;;;7.28;6.97;;;;;;;-143.83;100.00;62900.06;5111829;28;20035;-62
2022/07/14 07:08:36;;;;;;;7.32;7.03;;;;;;;-143.83;100.00;62900.06;5112496;28;20027;-63
2022/07/14 07:11:02;;;;;;;7.30;7.00;;;;;;;-143.83;100.00;62900.06;5102463;28;20391;-63
2022/07/14 07:13:27;;;;;;;7.28;6.97;;;;;;;-143.83;100.00;62900.06;5108013;28;20035;-63
2022/07/14 07:15:53;;;;;;;7.40;7.10;;;;;;;-143.83;100.00;62900.06;5111899;28;20046;-64
2022/07/14 07:18:19;;;;;;;7.10;6.80;;;;;;;-143.83;100.00;62900.06;5111828;28;20111;-63
2022/07/14 07:20:45;;;;;;;7.30;7.00;;;;;;;-143.83;100.00;62900.06;5112076;28;20031;-62
2022/07/14 07:23:10;;;;;;;7.18;6.88;;;;;;;-143.83;100.00;62900.06;5111914;28;20015;-62
2022/07/14 07:25:36;;;;;;;7.20;6.90;;;;;;;-143.83;100.00;62900.06;5113681;28;20406;-62
2022/07/14 07:28:02;;;;;;;7.13;6.82;;;;;;;-143.83;100.00;62900.06;5107501;28;20081;-63
2022/07/14 07:30:28;;;;;;;7.20;6.90;;;;;;;-143.83;100.00;62900.06;5101378;28;20034;-62
2022/07/14 07:32:54;;;;;;;7.20;6.90;;;;;;;-143.83;100.00;62900.06;5116039;28;20625;-63
2022/07/14 07:35:19;;;;;;;7.38;7.07;;;;;;;-143.83;100.00;62900.06;5116175;28;20043;-62
2022/07/14 07:37:45;;;;;;;7.25;6.95;;;;;;;-143.83;100.00;62900.06;5115917;28;20028;-62
2022/07/14 07:40:11;;;;;;;7.00;6.70;;;;;;;-143.83;100.00;62900.06;5115669;28;20131;-63
2022/07/14 07:42:36;;;;;;;6.88;6.57;;;;;;;-143.83;100.00;62900.06;5115593;28;20494;-61
2022/07/14 07:45:02;;;;;;;7.07;6.78;;;;;;;-143.83;100.00;62900.06;5119736;27;20467;-62
2022/07/14 07:47:28;;;;;;;7.20;6.90;;;;;;;-143.83;100.00;62900.06;5113103;27;20028;-63
2022/07/14 07:49:54;;;;;;;7.35;7.05;;;;;;;-143.83;100.00;62900.06;5104447;28;20410;-63
2022/07/14 07:52:20;;;;;;;7.10;6.80;;;;;;;-143.83;100.00;62900.06;5115246;27;20107;-63
2022/07/14 07:54:46;;;;;;;7.50;7.20;;;;;;;-143.83;100.00;62900.06;5101426;28;20035;-63
2022/07/14 07:57:12;;;;;;;7.20;6.90;;;;;;;-143.83;100.00;62900.06;5115884;28;20043;-62
2022/07/14 07:59:38;;;;;;;7.10;6.80;;;;;;;-143.83;100.00;62900.06;5115691;28;20490;-63
2022/07/14 08:02:04;;;;;;;7.40;7.10;;;;;;;-143.83;100.00;62900.06;5110666;28;20123;-63
2022/07/14 08:04:29;;;;;;;7.13;6.82;;;;;;;-143.83;100.00;62900.06;5111647;28;20077;-63
2022/07/14 08:06:55;;;;;;;7.00;6.70;;;;;;;-143.83;100.00;62900.06;5116021;28;20031;-62
2022/07/14 08:09:21;;;;;;;7.05;6.75;;;;;;;-143.83;100.00;62900.06;5101740;28;20531;-63
2022/07/14 08:11:47;;;;;;;7.20;6.90;;;;;;;-143.83;100.00;62900.06;5115103;28;20027;-63
2022/07/14 08:16:57;;;;;;;7.07;6.78;;;;;;;-143.83;100.00;62900.06;5103141;28;20035;-63
2022/07/14 08:19:23;;;;;;;7.10;6.80;;;;;;;-143.83;100.00;62900.06;5112481;28;20027;-63
2022/07/14 08:21:49;;;;;;;6.90;6.60;;;;;;;-143.83;100.00;62900.06;5115296;28;20023;-63
2022/07/14 08:24:15;;;;;;;7.00;6.70;;;;;;;-143.83;100.00;62900.06;5114954;28;20339;-63
2022/07/14 08:26:41;;;;;;;6.97;6.68;;;;;;;-143.83;100.00;62900.06;5114893;28;20024;-63
2022/07/14 08:29:07;;;;;;;7.30;7.00;;;;;;;-143.83;100.00;62900.06;5114736;28;20018;-62
2022/07/14 08:31:33;;;;;;;7.18;6.88;;;;;;;-143.83;100.00;62900.06;5105652;28;20101;-64
2022/07/14 08:33:58;;;;;;;7.28;6.97;;;;;;;-143.83;100.00;62900.06;5111293;28;20131;-63
2022/07/14 08:36:24;;;;;;;7.00;6.70;;;;;;;-143.83;100.00;62900.06;5111550;28;20467;-63
2022/07/14 08:38:49;;;;;;;7.00;6.70;;;;;;;-143.83;100.00;62900.06;5114374;28;20548;-63
2022/07/14 08:41:15;;;;;;;6.97;6.68;;;;;;;-143.83;100.00;62900.06;5114546;28;20475;-63
2022/07/14 08:43:41;;;;;;;7.18;6.88;;;;;;;-143.83;100.00;62900.06;5116894;27;20038;-62
2022/07/14 08:46:06;;;;;;;7.20;6.90;;;;;;;-143.83;100.00;62900.06;5114626;28;20019;-63
2022/07/14 08:48:33;;;;;;;7.10;6.80;;;;;;;-143.83;100.00;62900.06;5114568;28;20382;-64
2022/07/14 08:51:00;;;;;;;7.00;6.70;;;;;;;-143.83;100.00;62900.06;5114542;28;20390;-62
2022/07/14 08:53:27;;;;;;;6.90;6.60;;;;;;;-143.83;100.00;62900.06;5102190;28;20067;-62
2022/07/14 08:55:53;;;;;;;6.95;6.65;;;;;;;-143.83;100.00;62900.06;5113421;28;20035;-64
2022/07/14 08:58:19;;;;;;;6.80;6.50;;;;;;;-143.83;100.00;62900.06;5114362;28;20123;-62
2022/07/14 09:00:45;;;;;;;6.90;6.60;;;;;;;-143.83;100.00;62900.06;5114060;28;20107;-63
2022/07/14 09:03:10;;;;;;;6.90;6.60;;;;;;;-143.83;100.00;62900.06;5113787;28;20020;-63
2022/07/14 09:05:41;;;;;;;6.90;6.60;;;;;;;-143.83;100.00;62900.06;5114118;28;20077;-63
2022/07/14 09:08:07;;;;;;;6.80;6.50;;;;;;;-143.83;100.00;62900.06;5114277;28;20024;-63
2022/07/14 09:10:33;;;;;;;6.80;6.50;;;;;;;-143.83;100.00;62900.06;5100656;28;20438;-62
2022/07/14 09:13:19;;;;;;;7.00;6.70;;;;;;;-143.83;100.00;62900.06;5114090;28;20076;-63
2022/07/14 09:15:49;;;;;;;7.07;6.78;;;;;;;-143.83;100.00;62900.06;5111236;28;20031;-62
2022/07/14 09:18:24;;;;;;;6.97;6.68;;;;;;;-143.83;100.00;62900.06;5093446;28;20106;-63
2022/07/14 09:20:52;;;;;;;7.03;6.72;;;;;;;-143.83;100.00;62900.06;5099207;28;20509;-63
2022/07/14 09:23:29;;;;;;;6.90;6.60;;;;;;;-143.83;100.00;62900.06;5112421;28;20590;-62
2022/07/14 09:26:16;;;;;;;6.97;6.68;;;;;;;-143.83;100.00;62900.06;5112287;28;20108;-63
2022/07/14 09:28:43;;;;;;;6.95;6.65;;;;;;;-143.83;100.00;62900.06;5110532;28;20027;-63
2022/07/14 09:31:29;;;;;;;6.90;6.60;;;;;;;-143.83;100.00;62900.06;5113753;28;20504;-63
2022/07/14 09:34:06;;;;;;;6.90;6.60;;;;;;;-143.83;100.00;62900.06;5113596;28;20534;-63
2022/07/14 09:36:34;;;;;;;6.88;6.57;;;;;;;-143.83;100.00;62900.06;5099747;28;20028;-63
2022/07/14 09:39:03;;;;;;;6.70;6.40;;;;;;;-143.83;100.00;62900.06;5113467;28;20468;-63
2022/07/14 09:41:33;;;;;;;6.90;6.60;;;;;;;-143.83;100.00;62900.06;5114947;27;20031;-64
2022/07/14 09:44:09;;;;;;;6.70;6.40;;;;;;;-143.83;100.00;62900.06;5104870;28;20653;-62
2022/07/14 09:46:50;;;;;;;6.93;6.63;;;;;;;-143.83;100.00;62900.06;5111959;28;20020;-63
2022/07/14 09:49:18;;;;;;;6.80;6.50;;;;;;;-143.83;100.00;62900.06;5113022;28;20035;-63
2022/07/14 09:51:55;;;;;;;6.68;6.38;;;;;;;-143.83;100.00;62900.06;5097826;28;20020;-63
2022/07/14 09:54:52;;;;;;;6.75;6.45;;;;;;;-143.83;100.00;62900.06;5113230;28;20102;-62
2022/07/14 09:57:24;;;;;;;6.80;6.50;;;;;;;-143.83;100.00;62900.06;5086225;28;20042;-62
2022/07/14 10:00:16;;;;;;;6.78;6.47;;;;;;;-143.83;100.00;62900.06;5110639;28;20395;-63
2022/07/14 10:02:42;;;;;;;6.82;6.53;;;;;;;-143.83;100.00;62900.06;5102555;28;20020;-63
2022/07/14 10:05:09;;;;;;;6.80;6.50;;;;;;;-143.83;100.00;62900.06;5112969;28;20102;-62
2022/07/14 10:07:38;;;;;;;6.93;6.63;;;;;;;-143.83;100.00;62900.06;5113301;28;20019;-62
2022/07/14 10:10:11;;;;;;;6.90;6.60;;;;;;;-143.83;100.00;62900.06;5110183;27;20024;-62
2022/07/14 10:12:38;;;;;;;6.90;6.60;;;;;;;-143.83;100.00;62900.06;5102942;28;20023;-62
2022/07/14 10:15:10;;;;;;;6.72;6.43;;;;;;;-143.83;100.00;62900.06;5112865;28;20031;-62
2022/07/14 10:17:39;;;;;;;6.57;6.28;;;;;;;-143.83;100.00;62900.06;5108540;28;20383;-62
2022/07/14 10:20:06;;;;;;;6.60;6.30;;;;;;;-143.83;100.00;62900.06;5106297;28;20023;-64
2022/07/14 10:22:32;;;;;;;6.90;6.60;;;;;;;-143.83;100.00;62900.06;5099084;28;20038;-62
2022/07/14 10:24:58;;;;;;;6.95;6.65;;;;;;;-143.83;100.00;62900.06;5112641;28;20023;-63
2022/07/14 10:27:26;;;;;;;6.85;6.55;;;;;;;-143.83;100.00;62900.06;5112444;28;20031;-63
2022/07/14 10:29:53;;;;;;;7.00;6.70;;;;;;;-143.83;100.00;62900.06;5112552;28;20032;-62
2022/07/14 10:32:24;;;;;;;6.85;6.55;;;;;;;-143.83;100.00;62900.06;5098648;28;20027;-63
2022/07/14 10:35:17;;;;;;;6.80;6.50;;;;;;;-143.83;100.00;62900.06;5111576;28;20506;-63
2022/07/14 10:37:51;;;;;;;6.53;6.22;;;;;;;-143.83;100.00;62900.06;5118552;27;20528;-64
2022/07/14 10:40:38;;;;;;;6.50;6.20;;;;;;;-143.83;100.00;62900.06;5105031;28;20082;-63
2022/07/14 10:43:07;;;;;;;6.60;6.30;;;;;;;-143.83;100.00;62900.06;5108637;28;20032;-62
2022/07/14 10:45:33;;;;;;;6.82;6.53;;;;;;;-143.83;100.00;62900.06;5112430;28;20065;-63
2022/07/14 10:47:59;;;;;;;6.78;6.47;;;;;;;-143.83;100.00;62900.06;5112372;28;20027;-63
2022/07/14 10:50:27;;;;;;;6.53;6.22;;;;;;;-143.83;100.00;62900.06;5103514;28;20020;-63
2022/07/14 10:52:55;;;;;;;6.55;6.25;;;;;;;-143.83;100.00;62900.06;5093817;28;20031;-65
2022/07/14 10:55:26;;;;;;;6.70;6.40;;;;;;;-143.83;100.00;62900.06;5106761;27;20023;-62
2022/07/14 10:57:58;;;;;;;6.80;6.50;;;;;;;-143.83;100.00;62900.06;5112477;28;20387;-64
2022/07/14 11:00:39;;;;;;;6.60;6.30;;;;;;;-143.83;100.00;62900.06;5111682;28;20085;-64
2022/07/14 11:03:27;;;;;;;6.60;6.30;;;;;;;-143.83;100.00;62900.06;5112361;28;20376;-62
2022/07/14 11:06:08;;;;;;;6.90;6.60;;;;;;;-143.83;100.00;62900.06;5100172;28;20031;-62
2022/07/14 11:08:38;;;;;;;6.72;6.43;;;;;;;-143.83;100.00;62900.06;5111907;28;20031;-63
2022/07/14 11:11:09;;;;;;;6.82;6.53;;;;;;;-143.83;100.00;62900.06;5111800;28;20165;-62
2022/07/14 11:14:00;;;;;;;6.88;6.57;;;;;;;-143.83;100.00;62900.06;5111842;28;20020;-63
2022/07/14 11:16:44;;;;;;;6.63;6.32;;;;;;;-143.83;100.00;62900.06;5111775;28;20024;-63
2022/07/14 11:19:30;;;;;;;;;;;;;;;-143.83;100.00;62900.06;5109682;28;20031;-63
2022/07/14 11:22:28;;;;;;;6.60;6.30;;;;;;;-143.83;100.00;62900.06;5112403;28;19934;-62
2022/07/14 11:24:56;;;;;;;6.60;6.30;;;;;;;-143.83;100.00;62900.06;5088218;28;20106;-63